createdAt,value
2018-12-08T16:02:51.636Z,6.02
2018-12-08T16:04:01.791Z,5.98
2018-12-08T16:05:11.941Z,5.9
2018-12-08T16:06:22.063Z,5.9
2018-12-08T16:07:32.212Z,5.93
2018-12-08T16:08:42.140Z,5.79
2018-12-08T16:09:52.282Z,5.77
2018-12-08T16:11:02.462Z,5.86
2018-12-08T16:12:12.756Z,5.77
2018-12-08T16:13:23.026Z,5.86
2018-12-08T16:14:33.221Z,5.82
2018-12-08T16:15:43.147Z,5.82
2018-12-08T16:16:53.401Z,5.9
2018-12-08T16:18:03.574Z,5.88
2018-12-08T16:19:13.754Z,5.93
2018-12-08T16:20:24.471Z,5.91
2018-12-08T16:21:34.682Z,5.75
2018-12-08T16:22:44.885Z,5.8
2018-12-08T16:23:55.067Z,5.77
2018-12-08T16:25:05.228Z,5.88
2018-12-08T16:26:15.424Z,5.72
2018-12-08T16:27:25.579Z,5.93
2018-12-08T16:28:35.824Z,5.79
2018-12-08T16:29:45.996Z,5.88
2018-12-08T16:30:56.183Z,5.88
2018-12-08T16:32:06.079Z,5.86
2018-12-08T16:33:16.213Z,5.86
2018-12-08T16:34:26.381Z,5.83
2018-12-08T16:35:36.581Z,5.84
2018-12-08T16:36:46.735Z,5.83
2018-12-08T16:38:02.005Z,5.88
2018-12-08T16:39:12.173Z,5.9
2018-12-08T16:40:22.362Z,5.79
2018-12-08T16:41:32.537Z,5.8
2018-12-08T16:42:42.693Z,5.88
2018-12-08T16:43:52.837Z,5.96
2018-12-08T16:45:04.410Z,5.91
2018-12-08T16:46:14.569Z,5.93
2018-12-08T16:47:24.743Z,5.84
2018-12-08T16:48:34.681Z,5.93
2018-12-08T16:49:44.871Z,5.98
2018-12-08T16:50:55.004Z,6.03
2018-12-08T16:52:05.145Z,5.96
2018-12-08T16:53:15.399Z,5.99
2018-12-08T16:54:25.561Z,6.06
2018-12-08T16:55:35.128Z,6.05
2018-12-08T16:56:45.314Z,6.05
2018-12-08T16:57:55.484Z,6.12
2018-12-08T16:59:05.511Z,6.06
2018-12-08T17:00:15.647Z,6.12
2018-12-08T17:01:25.954Z,6.03
2018-12-08T17:02:36.144Z,6.12
2018-12-08T17:03:46.284Z,6.11
2018-12-08T17:04:56.559Z,6.05
2018-12-08T17:06:06.716Z,6.11
2018-12-08T17:07:16.625Z,6.12
2018-12-08T17:08:26.763Z,6.08
2018-12-08T17:09:36.908Z,6.03
2018-12-08T17:10:46.447Z,5.94
2018-12-08T17:11:56.636Z,5.94
2018-12-08T17:13:06.778Z,5.86
2018-12-08T17:14:16.933Z,5.86
2018-12-08T17:15:27.115Z,5.86
2018-12-08T17:16:37.250Z,5.88
2018-12-08T17:17:47.485Z,5.9
2018-12-08T17:18:57.647Z,5.84
2018-12-08T17:20:07.542Z,5.9
2018-12-08T17:21:17.704Z,5.86
2018-12-08T17:22:27.861Z,5.91
2018-12-08T17:23:38.016Z,5.91
2018-12-08T17:24:48.225Z,6.03
2018-12-08T17:25:58.379Z,6.03
2018-12-08T17:27:08.525Z,6.01
2018-12-08T17:28:18.697Z,5.98
2018-12-08T17:29:28.855Z,6.12
2018-12-08T17:30:38.996Z,6.05
2018-12-08T17:31:49.140Z,6.03
2018-12-08T17:32:59.274Z,6.12
2018-12-08T17:34:09.608Z,6.01
2018-12-08T17:35:19.803Z,6.03
2018-12-08T17:36:30.002Z,6.08
2018-12-08T17:37:40.344Z,6.09
2018-12-08T17:38:50.523Z,6.16
2018-12-08T17:40:00.735Z,6.09
2018-12-08T17:41:10.923Z,6.17
2018-12-08T17:42:21.111Z,6.09
2018-12-08T17:43:31.303Z,6.12
2018-12-08T17:44:41.531Z,6.16
2018-12-08T17:45:51.474Z,6.17
2018-12-08T17:47:01.674Z,6.08
2018-12-08T17:48:11.706Z,6.14
2018-12-08T17:49:21.890Z,6.17
2018-12-08T17:50:32.097Z,6.11
2018-12-08T17:51:42.299Z,6.21
2018-12-08T17:52:52.461Z,6.17
2018-12-08T17:54:03.589Z,6.2
2018-12-08T17:55:14.172Z,6.26
2018-12-08T17:56:24.330Z,6.23
2018-12-08T17:57:34.536Z,6.21
2018-12-08T17:58:44.681Z,6.26
2018-12-08T17:59:54.866Z,6.28
2018-12-08T18:01:05.044Z,6.2
2018-12-08T18:02:17.131Z,6.28
2018-12-08T18:03:27.352Z,6.28
2018-12-08T18:04:37.567Z,6.31
2018-12-08T18:05:47.724Z,6.31
2018-12-08T18:06:57.903Z,6.34
2018-12-08T18:08:08.115Z,6.41
2018-12-08T18:09:18.921Z,6.42
2018-12-08T18:10:30.299Z,6.49
2018-12-08T18:11:40.506Z,6.54
2018-12-08T18:12:50.684Z,6.45
2018-12-08T18:14:00.905Z,6.52
2018-12-08T18:15:11.060Z,6.54
2018-12-08T18:16:21.245Z,6.49
2018-12-08T18:17:31.401Z,6.54
2018-12-08T18:18:41.593Z,6.57
2018-12-08T18:19:51.811Z,6.53
2018-12-08T18:21:02.335Z,6.48
2018-12-08T18:22:13.378Z,6.42
2018-12-08T18:23:23.525Z,6.48
2018-12-08T18:24:33.715Z,6.45
2018-12-08T18:25:44.000Z,6.57
2018-12-08T18:26:54.195Z,6.48
2018-12-08T18:28:04.354Z,6.48
2018-12-08T18:29:14.537Z,6.44
2018-12-08T18:30:24.684Z,6.53
2018-12-08T18:31:34.846Z,6.54
2018-12-08T18:32:45.110Z,6.44
2018-12-08T18:33:55.341Z,6.54
2018-12-08T18:35:05.365Z,6.48
2018-12-08T18:36:15.547Z,6.59
2018-12-08T18:37:25.707Z,6.56
2018-12-08T18:38:35.935Z,6.49
2018-12-08T18:39:46.106Z,6.46
2018-12-08T18:40:56.294Z,6.52
2018-12-08T18:42:06.494Z,6.52
2018-12-08T18:43:16.653Z,6.48
2018-12-08T18:44:26.821Z,6.54
2018-12-08T18:45:36.979Z,6.38
2018-12-08T18:46:47.131Z,6.39
2018-12-08T18:47:57.307Z,6.44
2018-12-08T18:49:07.543Z,6.35
2018-12-08T18:50:17.728Z,6.3
2018-12-08T18:51:28.024Z,6.36
2018-12-08T18:52:39.267Z,6.27
2018-12-08T18:53:50.475Z,6.3
2018-12-08T18:55:01.076Z,6.24
2018-12-08T18:56:11.429Z,6.19
2018-12-08T18:57:21.723Z,6.24
2018-12-08T18:58:31.869Z,6.16
2018-12-08T18:59:42.286Z,6.2
2018-12-08T19:00:52.230Z,6.19
2018-12-08T19:02:02.384Z,6.16
2018-12-08T19:03:12.574Z,6.06
2018-12-08T19:04:22.785Z,6.03
2018-12-08T19:05:32.956Z,6.11
2018-12-08T19:06:43.181Z,6.01
2018-12-08T19:07:53.469Z,6.02
2018-12-08T19:09:03.775Z,6.01
2018-12-08T19:10:13.954Z,5.98
2018-12-08T19:11:24.160Z,6.02
2018-12-08T19:12:34.344Z,6.05
2018-12-08T19:13:44.738Z,5.83
2018-12-08T19:14:54.921Z,5.91
2018-12-08T19:16:05.112Z,5.88
2018-12-08T19:17:15.149Z,5.74
2018-12-08T19:18:25.784Z,5.9
2018-12-08T19:19:36.215Z,5.82
2018-12-08T19:20:46.987Z,5.84
2018-12-08T19:21:57.168Z,5.86
2018-12-08T19:23:07.515Z,5.79
2018-12-08T19:24:18.005Z,5.77
2018-12-08T19:25:28.274Z,5.79
2018-12-08T19:26:38.815Z,5.68
2018-12-08T19:27:50.317Z,5.72
2018-12-08T19:29:00.464Z,5.65
2018-12-08T19:30:10.659Z,5.68
2018-12-08T19:31:20.822Z,5.67
2018-12-08T19:32:31.003Z,5.56
2018-12-08T19:33:41.226Z,5.56
2018-12-08T19:34:51.400Z,5.59
2018-12-08T19:36:02.057Z,5.58
2018-12-08T19:37:12.554Z,5.51
2018-12-08T19:38:22.495Z,5.49
2018-12-08T19:39:32.896Z,5.41
2018-12-08T19:40:43.801Z,5.46
2018-12-08T19:41:54.781Z,5.41
2018-12-08T19:43:04.998Z,5.4
2018-12-08T19:44:15.446Z,5.35
2018-12-08T19:45:26.153Z,5.29
2018-12-08T19:46:37.043Z,5.29
2018-12-08T19:47:47.373Z,5.35
2018-12-08T19:48:58.258Z,5.29
2018-12-08T19:50:08.441Z,5.33
2018-12-08T19:51:19.704Z,5.33
2018-12-08T19:52:31.097Z,5.35
2018-12-08T19:53:41.495Z,5.24
2018-12-08T19:54:52.395Z,5.18
2018-12-08T19:56:03.731Z,5.32
2018-12-08T19:57:15.189Z,5.31
2018-12-08T19:58:25.768Z,5.22
2018-12-08T19:59:36.011Z,5.18
2018-12-08T20:00:46.184Z,5.16
2018-12-08T20:01:56.411Z,5.29
2018-12-08T20:03:07.139Z,5.18
2018-12-08T20:04:18.411Z,5.17
2018-12-08T20:05:29.600Z,5.22
2018-12-08T20:06:40.004Z,5.16
2018-12-08T20:07:50.402Z,5.22
2018-12-08T20:09:00.605Z,5.22
2018-12-08T20:10:10.790Z,5.22
2018-12-08T20:11:20.987Z,5.21
2018-12-08T20:12:31.202Z,5.24
2018-12-08T20:13:41.435Z,5.24
2018-12-08T20:14:51.699Z,5.25
2018-12-08T20:16:01.930Z,5.18
2018-12-08T20:17:11.835Z,5.24
2018-12-08T20:18:22.079Z,5.26
2018-12-08T20:19:32.508Z,5.28
2018-12-08T20:20:42.739Z,5.25
2018-12-08T20:21:52.953Z,5.25
2018-12-08T20:23:02.980Z,5.26
2018-12-08T20:24:13.414Z,5.21
2018-12-08T20:25:23.687Z,5.26
2018-12-08T20:26:34.162Z,5.24
2018-12-08T20:27:44.371Z,5.21
2018-12-08T20:28:54.583Z,5.31
2018-12-08T20:30:04.750Z,5.28
2018-12-08T20:31:14.964Z,5.28
2018-12-08T20:32:25.112Z,5.32
2018-12-08T20:33:35.286Z,5.25
2018-12-08T20:34:45.465Z,5.32
2018-12-08T20:35:55.674Z,5.29
2018-12-08T20:37:05.866Z,5.43
2018-12-08T20:38:16.028Z,5.46
2018-12-08T20:39:26.304Z,5.4
2018-12-08T20:40:36.313Z,5.4
2018-12-08T20:41:46.508Z,5.44
2018-12-08T20:42:56.681Z,5.41
2018-12-08T20:44:06.864Z,5.41
2018-12-08T20:45:17.068Z,5.4
2018-12-08T20:46:28.416Z,5.41
2018-12-08T20:47:38.664Z,5.38
2018-12-08T20:48:48.867Z,5.46
2018-12-08T20:49:59.235Z,5.41
2018-12-08T20:51:09.430Z,5.46
2018-12-08T20:52:19.673Z,5.41
2018-12-08T20:53:29.839Z,5.4
2018-12-08T20:54:40.021Z,5.44
2018-12-08T20:55:50.233Z,5.41
2018-12-08T20:57:00.401Z,5.32
2018-12-08T20:58:10.647Z,5.28
2018-12-08T20:59:20.796Z,5.28
2018-12-08T21:00:31.102Z,5.29
2018-12-08T21:01:41.326Z,5.29
2018-12-08T21:02:51.287Z,5.33
2018-12-08T21:04:01.534Z,5.25
2018-12-08T21:05:11.750Z,5.29
2018-12-08T21:06:21.974Z,5.38
2018-12-08T21:07:32.201Z,5.36
2018-12-08T21:08:42.451Z,5.44
2018-12-08T21:09:52.615Z,5.43
2018-12-08T21:11:02.811Z,5.41
2018-12-08T21:12:13.045Z,5.44
2018-12-08T21:13:23.250Z,5.36
2018-12-08T21:14:33.465Z,5.41
2018-12-08T21:15:43.699Z,5.38
2018-12-08T21:16:53.975Z,5.44
2018-12-08T21:18:04.208Z,5.4
2018-12-08T21:19:14.683Z,5.38
2018-12-08T21:20:24.883Z,5.41
2018-12-08T21:21:35.201Z,5.43
2018-12-08T21:22:45.378Z,5.41
2018-12-08T21:23:55.593Z,5.47
2018-12-08T21:25:06.451Z,5.5
2018-12-08T21:26:16.644Z,5.43
2018-12-08T21:27:26.819Z,5.54
2018-12-08T21:28:36.736Z,5.54
2018-12-08T21:29:46.939Z,5.54
2018-12-08T21:30:57.202Z,5.53
2018-12-08T21:32:08.729Z,5.51
2018-12-08T21:33:18.915Z,5.59
2018-12-08T21:34:29.115Z,5.56
2018-12-08T21:35:39.260Z,5.59
2018-12-08T21:36:49.421Z,5.59
2018-12-08T21:37:59.599Z,5.56
2018-12-08T21:39:09.746Z,5.53
2018-12-08T21:40:19.934Z,5.68
2018-12-08T21:41:30.106Z,5.54
2018-12-08T21:42:40.305Z,5.61
2018-12-08T21:43:50.496Z,5.53
2018-12-08T21:45:00.668Z,5.58
2018-12-08T21:46:10.953Z,5.64
2018-12-08T21:47:20.876Z,5.67
2018-12-08T21:48:31.060Z,5.58
2018-12-08T21:49:41.257Z,5.68
2018-12-08T21:50:51.457Z,5.64
2018-12-08T21:52:01.621Z,5.59
2018-12-08T21:53:11.831Z,5.58
2018-12-08T21:54:21.989Z,5.64
2018-12-08T21:55:32.190Z,5.67
2018-12-08T21:56:42.370Z,5.62
2018-12-08T21:57:52.528Z,5.54
2018-12-08T21:59:02.732Z,5.64
2018-12-08T22:00:12.967Z,5.67
2018-12-08T22:01:23.193Z,5.68
2018-12-08T22:02:33.346Z,5.61
2018-12-08T22:03:43.539Z,5.67
2018-12-08T22:04:53.736Z,5.68
2018-12-08T22:06:04.070Z,5.72
2018-12-08T22:07:14.225Z,5.75
2018-12-08T22:08:24.381Z,5.68
2018-12-08T22:09:34.514Z,5.84
2018-12-08T22:10:44.671Z,5.9
2018-12-08T22:11:54.840Z,5.72
2018-12-08T22:13:05.049Z,5.8
2018-12-08T22:14:15.206Z,5.79
2018-12-08T22:15:25.694Z,5.86
2018-12-08T22:16:35.905Z,5.8
2018-12-08T22:17:46.328Z,5.9
2018-12-08T22:18:56.525Z,5.94
2018-12-08T22:20:07.086Z,5.86
2018-12-08T22:21:17.286Z,5.86
2018-12-08T22:22:28.427Z,5.91
2018-12-08T22:23:38.639Z,5.91
2018-12-08T22:24:48.817Z,5.99
2018-12-08T22:25:58.981Z,6.01
2018-12-08T22:27:09.153Z,5.91
2018-12-08T22:28:19.357Z,5.88
2018-12-08T22:29:29.508Z,5.91
2018-12-08T22:30:40.628Z,5.9
2018-12-08T22:31:50.461Z,5.96
2018-12-08T22:33:00.658Z,5.94
2018-12-08T22:34:10.815Z,5.88
2018-12-08T22:35:20.982Z,6.03
2018-12-08T22:36:31.159Z,5.91
2018-12-08T22:37:41.346Z,5.93
2018-12-08T22:38:51.509Z,5.91
2018-12-08T22:40:01.750Z,5.88
2018-12-08T22:41:11.942Z,5.99
2018-12-08T22:42:22.128Z,5.86
2018-12-08T22:43:32.313Z,5.9
2018-12-08T22:44:42.477Z,5.88
2018-12-08T22:45:52.758Z,5.9
2018-12-08T22:47:02.926Z,5.9
2018-12-08T22:48:13.216Z,5.91
2018-12-08T22:49:23.382Z,5.93
2018-12-08T22:50:33.561Z,5.9
2018-12-08T22:51:44.725Z,5.82
2018-12-08T22:52:54.903Z,5.88
2018-12-08T22:54:05.096Z,5.75
2018-12-08T22:55:15.265Z,5.72
2018-12-08T22:56:25.397Z,5.8
2018-12-08T22:57:35.317Z,5.79
2018-12-08T22:58:47.321Z,5.79
2018-12-08T22:59:57.493Z,5.83
2018-12-08T23:01:07.652Z,5.68
2018-12-08T23:02:17.801Z,5.83
2018-12-08T23:03:27.973Z,5.77
2018-12-08T23:04:38.120Z,5.8
2018-12-08T23:05:48.290Z,5.77
2018-12-08T23:06:58.221Z,5.84
2018-12-08T23:08:08.380Z,5.9
2018-12-08T23:09:18.593Z,5.69
2018-12-08T23:10:28.969Z,5.77
2018-12-08T23:11:39.177Z,5.84
2018-12-08T23:12:49.363Z,5.8
2018-12-08T23:13:59.549Z,5.72
2018-12-08T23:15:09.927Z,5.65
2018-12-08T23:16:20.080Z,5.67
2018-12-08T23:17:30.258Z,5.68
2018-12-08T23:18:40.433Z,5.58
2018-12-08T23:19:50.593Z,5.56
2018-12-08T23:21:00.742Z,5.53
2018-12-08T23:22:10.903Z,5.58
2018-12-08T23:23:21.072Z,5.61
2018-12-08T23:24:31.222Z,5.56
2018-12-08T23:25:41.384Z,5.56
2018-12-08T23:26:51.587Z,5.54
2018-12-08T23:28:01.760Z,5.54
2018-12-08T23:29:11.918Z,5.54
2018-12-08T23:30:22.052Z,5.54
2018-12-08T23:31:32.193Z,5.53
2018-12-08T23:32:42.332Z,5.56
2018-12-08T23:33:52.474Z,5.51
2018-12-08T23:35:02.715Z,5.53
2018-12-08T23:36:12.602Z,5.5
2018-12-08T23:37:22.759Z,5.5
2018-12-08T23:38:32.919Z,5.5
2018-12-08T23:39:44.134Z,5.5
2018-12-08T23:40:54.303Z,5.59
2018-12-08T23:42:04.702Z,5.59
2018-12-08T23:43:14.893Z,5.56
2018-12-08T23:44:25.053Z,5.58
2018-12-08T23:45:37.137Z,5.56
2018-12-08T23:46:47.306Z,5.59
2018-12-08T23:47:57.492Z,5.58
2018-12-08T23:49:15.978Z,5.59
2018-12-08T23:50:25.864Z,5.61
2018-12-08T23:51:36.013Z,5.61
2018-12-08T23:52:46.141Z,5.58
2018-12-08T23:53:56.276Z,5.59
2018-12-08T23:55:06.441Z,5.56
2018-12-08T23:56:16.599Z,5.54
2018-12-08T23:57:26.929Z,5.56
2018-12-08T23:58:37.073Z,5.56
2018-12-08T23:59:47.458Z,5.53
